Time;durP1;ratioP1;P1;durP2;ratioP2;P2;SDS_P1;SDS_P2;PMS_P1;PMS_P2;Temp;Humidity;BMP_temperature;BMP_pressure;BME280_temperature;BME280_humidity;BME280_pressure;Samples;Min_cycle;Max_cycle;Signal;HPM_P1;HPM_P2
2021/09/20 00:00:33;;;;;;;10.32;4.70;;;10.80;92.20;;;;;;5048638;28;20032;-69
2021/09/20 00:02:58;;;;;;;7.63;3.20;;;10.80;92.10;;;;;;5032259;28;20029;-71
2021/09/20 00:05:24;;;;;;;5.78;2.80;;;10.80;92.00;;;;;;5032150;28;20144;-70
2021/09/20 00:07:50;;;;;;;4.88;2.53;;;10.80;92.00;;;;;;5042736;28;20059;-70
2021/09/20 00:10:16;;;;;;;4.25;2.30;;;10.80;91.70;;;;;;5053711;28;20083;-71
2021/09/20 00:12:42;;;;;;;2.90;2.30;;;10.80;91.70;;;;;;5052213;28;20477;-70
2021/09/20 00:15:12;;;;;;;3.97;2.50;;;10.90;91.80;;;;;;5051972;28;20029;-70
2021/09/20 00:17:37;;;;;;;6.30;2.22;;;10.80;91.70;;;;;;5052058;28;20037;-71
2021/09/20 00:20:06;;;;;;;3.67;2.00;;;10.80;91.70;;;;;;5053492;28;20025;-69
2021/09/20 00:22:31;;;;;;;3.53;2.53;;;10.90;91.60;;;;;;5051784;28;20021;-70
2021/09/20 00:24:58;;;;;;;4.43;2.78;;;10.80;91.40;;;;;;5033340;28;20022;-70
2021/09/20 00:27:23;;;;;;;5.85;2.90;;;10.80;91.40;;;;;;5031826;28;20033;-70
2021/09/20 00:29:49;;;;;;;5.03;3.10;;;10.80;91.50;;;;;;5033071;28;20094;-69
2021/09/20 00:32:15;;;;;;;5.18;3.30;;;10.80;91.50;;;;;;5032005;28;20021;-70
2021/09/20 00:34:42;;;;;;;5.80;3.10;;;10.80;91.50;;;;;;5032038;28;20163;-70
2021/09/20 00:37:09;;;;;;;4.80;2.70;;;10.80;91.50;;;;;;5041281;28;20021;-70
2021/09/20 00:39:34;;;;;;;6.15;2.95;;;10.70;91.50;;;;;;5051718;28;20033;-70
2021/09/20 00:42:00;;;;;;;7.65;3.47;;;10.70;91.50;;;;;;5051622;28;20047;-71
2021/09/20 00:44:26;;;;;;;4.25;3.03;;;10.70;91.50;;;;;;5051886;28;20447;-70
2021/09/20 00:46:52;;;;;;;4.07;2.72;;;10.70;91.50;;;;;;5051753;28;20029;-72
2021/09/20 00:49:18;;;;;;;4.47;2.70;;;10.70;91.30;;;;;;5052045;28;20365;-71
2021/09/20 00:51:43;;;;;;;4.07;2.53;;;10.70;91.30;;;;;;5052928;28;20079;-72
2021/09/20 00:54:09;;;;;;;5.50;3.38;;;10.70;91.50;;;;;;5053157;28;20464;-70
2021/09/20 00:56:35;;;;;;;5.00;3.13;;;10.70;91.60;;;;;;5051409;28;20025;-71
2021/09/20 00:59:01;;;;;;;4.07;2.63;;;10.70;91.50;;;;;;5053433;28;20087;-70
2021/09/20 01:01:27;;;;;;;4.70;2.53;;;10.70;91.50;;;;;;5055130;28;20025;-73
2021/09/20 01:03:53;;;;;;;5.88;2.42;;;10.70;91.70;;;;;;5056634;28;20021;-71
2021/09/20 01:06:18;;;;;;;2.00;1.70;;;10.70;91.80;;;;;;5054590;28;20128;-71
2021/09/20 01:08:45;;;;;;;3.63;2.22;;;10.70;91.50;;;;;;5053482;28;20044;-69
2021/09/20 01:11:11;;;;;;;3.55;2.58;;;10.70;91.50;;;;;;5054661;28;20032;-72
2021/09/20 01:13:36;;;;;;;5.07;2.60;;;10.70;91.60;;;;;;5055038;28;20025;-70
2021/09/20 01:16:02;;;;;;;5.30;3.08;;;10.70;91.90;;;;;;5055299;28;20040;-70
2021/09/20 01:18:28;;;;;;;5.25;3.40;;;10.70;91.80;;;;;;5054823;28;20033;-70
2021/09/20 01:20:53;;;;;;;4.63;2.80;;;10.70;91.80;;;;;;5056103;28;20025;-73
2021/09/20 01:23:19;;;;;;;6.18;2.70;;;10.70;91.70;;;;;;5054650;28;20025;-69
2021/09/20 01:25:45;;;;;;;8.43;4.60;;;10.60;91.80;;;;;;5054804;28;20120;-71
2021/09/20 01:28:11;;;;;;;6.10;3.55;;;10.60;91.80;;;;;;5054712;28;20463;-70
2021/09/20 01:30:37;;;;;;;5.95;3.17;;;10.50;92.00;;;;;;5054726;28;20387;-70
2021/09/20 01:33:02;;;;;;;5.90;3.45;;;10.60;92.00;;;;;;5054887;28;20387;-71
2021/09/20 01:35:29;;;;;;;5.20;3.20;;;10.60;91.80;;;;;;5054590;28;20025;-70
2021/09/20 01:37:55;;;;;;;6.35;3.47;;;10.60;91.90;;;;;;5046735;28;20017;-70
2021/09/20 01:40:21;;;;;;;7.05;3.10;;;10.50;92.00;;;;;;5035908;28;20055;-71
2021/09/20 01:42:47;;;;;;;4.45;2.80;;;10.50;91.90;;;;;;5035548;28;20056;-70
2021/09/20 01:45:14;;;;;;;5.95;2.50;;;10.50;91.80;;;;;;5044374;28;20460;-70
2021/09/20 01:47:41;;;;;;;5.10;2.88;;;10.50;91.80;;;;;;5034376;28;20025;-70
2021/09/20 01:50:09;;;;;;;5.07;2.70;;;10.50;91.70;;;;;;5034268;28;20026;-71
2021/09/20 01:52:35;;;;;;;5.63;2.42;;;10.40;91.70;;;;;;5034142;28;20025;-70
2021/09/20 01:55:01;;;;;;;5.78;2.60;;;10.40;91.80;;;;;;5035295;28;20025;-71
2021/09/20 01:57:27;;;;;;;4.45;2.67;;;10.50;91.80;;;;;;5035374;28;20033;-72
2021/09/20 01:59:53;;;;;;;3.42;2.53;;;10.50;91.70;;;;;;5035654;28;20034;-70
2021/09/20 02:02:18;;;;;;;4.40;3.08;;;10.50;91.70;;;;;;5034055;28;20025;-71
2021/09/20 02:04:44;;;;;;;5.40;3.10;;;10.50;91.50;;;;;;5035263;28;20045;-70
2021/09/20 02:07:10;;;;;;;11.57;5.78;;;10.50;91.40;;;;;;5033984;28;20041;-69
2021/09/20 02:09:36;;;;;;;24.02;8.60;;;10.40;91.30;;;;;;5035092;28;20060;-70
2021/09/20 02:12:01;;;;;;;27.25;11.00;;;10.40;91.40;;;;;;5034193;28;20033;-71
2021/09/20 02:14:27;;;;;;;37.15;14.10;;;10.30;91.70;;;;;;5033869;28;20026;-71
2021/09/20 02:16:53;;;;;;;48.38;18.33;;;10.30;91.80;;;;;;5033878;28;20029;-70
2021/09/20 02:19:19;;;;;;;48.15;20.02;;;10.30;91.80;;;;;;5033716;28;20071;-70
2021/09/20 02:21:45;;;;;;;50.60;21.15;;;10.30;91.90;;;;;;5035219;28;20068;-70
2021/09/20 02:24:10;;;;;;;51.58;19.10;;;10.30;92.20;;;;;;5033685;28;20029;-71
2021/09/20 02:26:36;;;;;;;62.40;23.10;;;10.20;92.10;;;;;;5033729;28;20384;-69
2021/09/20 02:29:03;;;;;;;70.13;27.00;;;10.20;92.10;;;;;;5035001;28;20044;-70
2021/09/20 02:31:28;;;;;;;79.22;30.00;;;10.20;92.20;;;;;;5033516;28;20032;-70
2021/09/20 02:33:54;;;;;;;108.78;39.47;;;10.20;92.30;;;;;;5035104;28;20380;-69
2021/09/20 02:36:20;;;;;;;109.80;40.47;;;10.10;92.30;;;;;;5033344;28;20067;-70
2021/09/20 02:38:46;;;;;;;109.05;39.20;;;10.10;92.50;;;;;;5044714;28;20119;-71
2021/09/20 02:41:11;;;;;;;111.03;39.70;;;10.10;92.80;;;;;;5054660;28;20025;-69
2021/09/20 02:43:38;;;;;;;109.35;37.28;;;10.10;92.90;;;;;;5054693;28;20032;-70
2021/09/20 02:46:04;;;;;;;92.60;34.08;;;10.10;92.90;;;;;;5053011;28;20087;-70
2021/09/20 02:48:30;;;;;;;107.82;39.03;;;10.10;92.80;;;;;;5054402;28;20106;-70
2021/09/20 02:50:56;;;;;;;98.82;37.25;;;10.10;92.90;;;;;;5053122;28;20021;-70
2021/09/20 02:53:22;;;;;;;95.10;34.30;;;10.00;92.80;;;;;;5053971;28;20036;-70
2021/09/20 02:55:48;;;;;;;96.22;34.78;;;10.00;93.10;;;;;;5053550;28;20028;-69
2021/09/20 02:58:14;;;;;;;85.88;31.65;;;9.90;93.10;;;;;;5054049;28;20087;-70
2021/09/20 03:00:39;;;;;;;65.97;24.00;;;10.00;93.40;;;;;;5054128;28;20029;-71
2021/09/20 03:03:08;;;;;;;74.88;26.73;;;9.90;93.40;;;;;;5054001;28;20025;-70
2021/09/20 03:05:37;;;;;;;70.93;26.08;;;9.90;93.60;;;;;;5052720;28;20056;-71
2021/09/20 03:08:04;;;;;;;59.33;22.02;;;10.00;93.80;;;;;;5050744;28;20044;-71
2021/09/20 03:10:31;;;;;;;56.80;22.23;;;9.90;94.00;;;;;;5054578;28;20037;-71
2021/09/20 03:12:58;;;;;;;75.88;27.40;;;10.00;94.10;;;;;;5053203;28;20163;-71
2021/09/20 03:15:24;;;;;;;70.90;25.50;;;10.00;93.90;;;;;;5053925;28;20104;-70
2021/09/20 03:17:50;;;;;;;80.57;30.05;;;10.00;93.90;;;;;;5053937;28;20035;-70
2021/09/20 03:20:16;;;;;;;90.40;32.05;;;10.00;94.00;;;;;;5053662;28;20105;-71
2021/09/20 03:22:42;;;;;;;92.63;32.88;;;10.00;94.10;;;;;;5052174;28;20036;-70
2021/09/20 03:25:09;;;;;;;87.85;32.47;;;10.00;94.20;;;;;;5054280;28;20025;-69
2021/09/20 03:27:35;;;;;;;91.40;30.92;;;10.00;94.10;;;;;;5052433;28;20386;-71
2021/09/20 03:30:02;;;;;;;71.97;27.17;;;10.00;94.10;;;;;;5053728;28;20052;-70
2021/09/20 03:32:28;;;;;;;95.63;32.75;;;10.10;94.20;;;;;;5043865;28;20056;-70
2021/09/20 03:34:54;;;;;;;95.40;35.83;;;10.00;94.00;;;;;;5032297;28;20033;-70
2021/09/20 03:37:20;;;;;;;89.13;30.83;;;10.10;94.20;;;;;;5032674;28;20025;-70
2021/09/20 03:39:46;;;;;;;97.53;35.47;;;10.10;94.20;;;;;;5033002;28;20038;-73
2021/09/20 03:42:11;;;;;;;84.38;30.10;;;10.20;94.00;;;;;;5033876;28;20033;-70
2021/09/20 03:44:37;;;;;;;76.63;29.33;;;10.20;94.10;;;;;;5032494;28;20411;-73
2021/09/20 03:47:03;;;;;;;73.95;25.50;;;10.20;93.80;;;;;;5032356;28;20032;-69
2021/09/20 03:49:29;;;;;;;72.28;27.35;;;10.20;93.80;;;;;;5033298;28;20029;-72
2021/09/20 03:51:54;;;;;;;85.50;31.70;;;10.20;93.60;;;;;;5033905;28;20112;-71
2021/09/20 03:54:20;;;;;;;80.70;29.08;;;10.20;93.80;;;;;;5033320;28;20026;-70
2021/09/20 03:56:46;;;;;;;69.47;26.52;;;10.20;93.70;;;;;;5042974;28;20083;-71
2021/09/20 03:59:11;;;;;;;63.88;24.45;;;10.20;93.70;;;;;;5053174;28;20048;-72
2021/09/20 04:01:37;;;;;;;63.15;24.13;;;10.30;93.70;;;;;;5048839;28;20024;-73
2021/09/20 04:04:03;;;;;;;50.90;20.17;;;10.20;93.70;;;;;;5042320;28;20028;-71
2021/09/20 04:06:30;;;;;;;52.20;18.83;;;10.30;93.80;;;;;;5050873;28;20403;-70
2021/09/20 04:09:00;;;;;;;43.08;16.15;;;10.30;93.90;;;;;;5053340;28;20044;-71
2021/09/20 04:11:26;;;;;;;25.92;11.02;;;10.30;93.70;;;;;;5038095;28;20057;-71
2021/09/20 04:13:52;;;;;;;26.73;10.48;;;10.30;93.70;;;;;;5058596;28;20041;-71
2021/09/20 04:16:17;;;;;;;18.95;8.45;;;10.40;93.60;;;;;;5053502;28;20040;-70
2021/09/20 04:18:43;;;;;;;14.68;6.63;;;10.50;93.70;;;;;;5051342;28;20025;-71
2021/09/20 04:21:09;;;;;;;9.07;4.53;;;10.50;93.30;;;;;;5051943;28;20071;-69
2021/09/20 04:23:35;;;;;;;8.27;3.85;;;10.60;93.30;;;;;;5051004;28;20115;-70
2021/09/20 04:26:01;;;;;;;7.65;3.78;;;10.60;92.90;;;;;;5043781;28;20064;-72
2021/09/20 04:28:27;;;;;;;5.93;3.00;;;10.60;92.70;;;;;;5032317;28;20427;-72
2021/09/20 04:30:53;;;;;;;6.15;3.22;;;10.70;92.60;;;;;;5036547;28;20033;-68
2021/09/20 04:33:21;;;;;;;8.93;4.45;;;10.70;92.50;;;;;;5036876;28;20529;-74
2021/09/20 04:35:48;;;;;;;3.47;2.55;;;10.70;92.30;;;;;;5053653;28;20036;-74
2021/09/20 04:38:14;;;;;;;5.72;3.65;;;10.80;92.40;;;;;;5054017;28;20029;-74
2021/09/20 04:40:40;;;;;;;5.90;3.10;;;10.80;92.20;;;;;;5043857;28;20510;-65
2021/09/20 04:43:08;;;;;;;6.13;3.25;;;10.80;91.90;;;;;;5035287;28;20057;-67
2021/09/20 04:45:35;;;;;;;5.78;3.20;;;10.80;92.00;;;;;;5038580;28;20025;-64
2021/09/20 04:48:00;;;;;;;6.20;3.17;;;10.90;92.10;;;;;;5054962;28;20029;-65
2021/09/20 04:50:26;;;;;;;5.65;3.25;;;11.00;91.70;;;;;;5056602;28;20033;-65
2021/09/20 04:52:52;;;;;;;5.10;2.70;;;11.00;91.90;;;;;;5053412;28;20025;-67
2021/09/20 04:55:18;;;;;;;2.92;1.90;;;11.10;91.60;;;;;;5038954;28;20021;-65
2021/09/20 04:57:43;;;;;;;3.92;2.25;;;11.20;91.00;;;;;;5037324;28;20034;-65
2021/09/20 05:00:11;;;;;;;4.28;3.10;;;11.20;90.70;;;;;;5038340;28;20034;-67
2021/09/20 05:02:36;;;;;;;4.53;2.70;;;11.20;90.50;;;;;;5050434;28;20021;-68
2021/09/20 05:05:02;;;;;;;3.20;2.20;;;11.10;90.60;;;;;;5054517;28;20094;-66
2021/09/20 05:07:28;;;;;;;4.38;2.53;;;11.20;90.60;;;;;;5044722;28;20041;-68
2021/09/20 05:09:53;;;;;;;6.45;2.92;;;11.20;90.40;;;;;;5054629;28;20025;-65
2021/09/20 05:12:19;;;;;;;3.72;2.30;;;11.20;90.40;;;;;;5042113;28;20030;-68
2021/09/20 05:14:45;;;;;;;6.43;3.30;;;11.20;90.40;;;;;;5037398;28;20365;-66
2021/09/20 05:17:12;;;;;;;11.25;5.55;;;11.20;90.40;;;;;;5041488;28;20021;-68
2021/09/20 05:19:38;;;;;;;10.98;5.47;;;11.30;90.50;;;;;;5034850;28;20124;-67
2021/09/20 05:22:04;;;;;;;11.27;5.35;;;11.30;90.50;;;;;;5036173;28;20231;-66
2021/09/20 05:24:29;;;;;;;13.25;6.55;;;11.40;90.30;;;;;;5046257;28;20463;-67
2021/09/20 05:26:55;;;;;;;23.15;10.30;;;11.50;90.10;;;;;;5041746;28;20025;-66
2021/09/20 05:29:21;;;;;;;24.60;9.93;;;11.50;90.00;;;;;;5035674;28;20431;-65
2021/09/20 05:31:46;;;;;;;25.00;12.85;;;11.60;89.80;;;;;;5041866;28;20557;-68
2021/09/20 05:34:12;;;;;;;29.17;13.73;;;11.70;89.20;;;;;;5056051;28;20075;-65
2021/09/20 05:36:38;;;;;;;22.88;10.73;;;11.80;88.70;;;;;;5052895;28;20035;-65
2021/09/20 05:39:04;;;;;;;11.25;5.93;;;11.70;88.70;;;;;;5045916;28;20025;-71
2021/09/20 05:41:30;;;;;;;7.85;4.28;;;11.80;88.60;;;;;;5051429;28;20123;-70
2021/09/20 05:43:55;;;;;;;5.30;3.22;;;11.80;88.70;;;;;;5062125;28;20116;-65
2021/09/20 05:46:22;;;;;;;5.93;3.17;;;11.90;88.30;;;;;;5042431;28;20024;-70
2021/09/20 05:48:47;;;;;;;3.92;1.98;;;11.90;87.90;;;;;;5075256;28;20093;-71
2021/09/20 05:51:14;;;;;;;4.75;2.58;;;12.00;87.50;;;;;;5054827;28;20033;-71
2021/09/20 05:53:40;;;;;;;3.88;2.00;;;12.10;87.00;;;;;;5042447;28;20025;-70
2021/09/20 05:56:06;;;;;;;3.63;2.10;;;12.20;85.90;;;;;;5042102;28;20468;-72
2021/09/20 05:58:32;;;;;;;4.00;2.38;;;12.30;85.90;;;;;;5041496;28;20064;-71
2021/09/20 06:00:57;;;;;;;4.03;1.75;;;12.40;85.30;;;;;;5049520;28;20040;-70
2021/09/20 06:03:23;;;;;;;2.97;2.25;;;12.30;84.30;;;;;;5051732;28;20029;-71
2021/09/20 06:05:49;;;;;;;4.70;2.50;;;12.40;84.20;;;;;;5045925;28;20045;-73
2021/09/20 06:08:14;;;;;;;8.30;2.63;;;12.30;83.80;;;;;;5044638;28;20040;-74
2021/09/20 06:10:40;;;;;;;4.15;2.65;;;12.40;84.20;;;;;;5043600;28;20029;-73
2021/09/20 06:13:07;;;;;;;3.88;2.40;;;12.50;83.80;;;;;;5041401;28;20541;-71
2021/09/20 06:15:37;;;;;;;4.88;2.03;;;12.60;83.80;;;;;;5040098;28;20032;-69
2021/09/20 06:18:04;;;;;;;4.40;1.60;;;12.70;83.60;;;;;;5040939;28;20037;-68
2021/09/20 06:20:30;;;;;;;3.97;1.83;;;12.80;82.50;;;;;;5056216;28;20026;-77
2021/09/20 06:22:56;;;;;;;7.35;2.78;;;12.70;82.30;;;;;;5037527;28;20039;-73
2021/09/20 06:25:23;;;;;;;5.40;1.90;;;12.80;82.30;;;;;;5038759;28;20102;-72
2021/09/20 06:27:49;;;;;;;4.00;1.63;;;12.80;82.60;;;;;;5038667;28;20020;-72
2021/09/20 06:30:15;;;;;;;2.80;1.50;;;12.80;82.00;;;;;;5042080;28;20368;-68
2021/09/20 06:32:41;;;;;;;2.97;1.55;;;12.90;81.50;;;;;;5052749;28;20029;-71
2021/09/20 06:35:07;;;;;;;2.72;1.40;;;12.90;80.50;;;;;;5035346;28;20079;-85
2021/09/20 06:37:33;;;;;;;4.95;2.10;;;12.80;80.60;;;;;;5036209;28;20120;-69
2021/09/20 06:39:59;;;;;;;4.60;1.80;;;12.80;81.00;;;;;;5041202;28;20108;-69
2021/09/20 06:42:24;;;;;;;4.95;2.10;;;12.90;81.20;;;;;;5036530;28;20033;-70
2021/09/20 06:44:50;;;;;;;4.07;2.13;;;13.00;81.30;;;;;;5051052;28;20025;-69
2021/09/20 06:47:21;;;;;;;3.05;1.83;;;13.20;80.90;;;;;;5051306;28;20029;-70
2021/09/20 06:49:47;;;;;;;3.20;1.70;;;13.30;80.60;;;;;;5052680;28;20033;-70
2021/09/20 06:52:13;;;;;;;4.80;1.85;;;13.40;79.60;;;;;;5051523;28;20082;-71
2021/09/20 06:54:38;;;;;;;3.38;1.48;;;13.50;79.10;;;;;;5053188;28;20028;-69
2021/09/20 06:57:04;;;;;;;4.05;1.25;;;13.50;78.50;;;;;;5053315;28;20056;-69
2021/09/20 06:59:30;;;;;;;3.40;1.58;;;13.50;78.10;;;;;;5054312;28;20036;-68
2021/09/20 07:01:55;;;;;;;2.40;1.40;;;13.50;78.00;;;;;;5054306;28;20032;-69
2021/09/20 07:04:21;;;;;;;2.20;1.60;;;13.50;77.90;;;;;;5053791;28;20029;-69
2021/09/20 07:06:47;;;;;;;3.95;2.08;;;13.60;77.30;;;;;;5054360;28;20026;-69
2021/09/20 07:09:13;;;;;;;6.75;2.00;;;13.60;77.50;;;;;;5054114;28;20039;-68
2021/09/20 07:11:39;;;;;;;6.97;2.72;;;13.60;77.40;;;;;;5052419;28;20029;-69
2021/09/20 07:14:05;;;;;;;3.30;1.90;;;13.60;77.20;;;;;;5053897;28;20082;-70
2021/09/20 07:16:31;;;;;;;5.85;1.58;;;13.70;77.10;;;;;;5053765;28;20382;-69
2021/09/20 07:18:58;;;;;;;2.40;1.42;;;13.70;76.90;;;;;;5053055;28;20107;-69
2021/09/20 07:21:24;;;;;;;4.20;1.90;;;13.70;76.80;;;;;;5053925;28;20029;-69
2021/09/20 07:23:51;;;;;;;1.58;1.20;;;13.70;76.40;;;;;;5054154;28;20036;-68
2021/09/20 07:26:18;;;;;;;3.38;1.92;;;13.70;76.70;;;;;;5052787;28;20086;-69
2021/09/20 07:28:44;;;;;;;3.33;1.65;;;13.70;76.60;;;;;;5052447;28;20052;-69
2021/09/20 07:31:11;;;;;;;5.78;2.60;;;13.70;76.70;;;;;;5052875;28;20033;-69
2021/09/20 07:33:37;;;;;;;5.30;2.40;;;13.80;76.90;;;;;;5052836;28;20454;-68
2021/09/20 07:36:03;;;;;;;5.28;1.98;;;13.90;76.80;;;;;;5053533;28;20056;-69
2021/09/20 07:38:29;;;;;;;4.07;2.47;;;13.90;76.60;;;;;;5053690;28;20039;-69
2021/09/20 07:40:54;;;;;;;2.90;1.50;;;13.90;76.30;;;;;;5053579;28;20457;-69
2021/09/20 07:43:20;;;;;;;2.33;1.50;;;14.00;76.30;;;;;;5053302;28;20104;-69
2021/09/20 07:45:46;;;;;;;2.05;1.20;;;13.90;76.00;;;;;;5052241;28;20029;-71
2021/09/20 07:48:11;;;;;;;2.72;1.50;;;13.90;75.70;;;;;;5053536;28;20040;-68
2021/09/20 07:50:38;;;;;;;2.97;1.40;;;13.70;76.10;;;;;;5053181;28;20033;-69
2021/09/20 07:53:04;;;;;;;3.25;1.20;;;13.80;76.50;;;;;;5053434;28;20032;-69
2021/09/20 07:55:34;;;;;;;3.38;1.80;;;13.90;76.20;;;;;;5051738;28;20463;-68
2021/09/20 07:58:05;;;;;;;2.97;1.60;;;13.90;75.70;;;;;;5053732;28;20034;-69
2021/09/20 08:00:32;;;;;;;2.08;1.40;;;13.90;75.80;;;;;;5053572;28;20056;-69
2021/09/20 08:02:58;;;;;;;3.53;1.50;;;13.90;75.90;;;;;;5053332;28;20029;-69
2021/09/20 08:05:24;;;;;;;4.10;1.67;;;13.90;76.30;;;;;;5052072;28;20060;-69
2021/09/20 08:07:50;;;;;;;3.05;1.67;;;14.00;76.20;;;;;;5053112;28;20482;-69
2021/09/20 08:10:16;;;;;;;2.92;1.40;;;14.00;76.30;;;;;;5055607;28;20037;-68
2021/09/20 08:12:41;;;;;;;2.65;1.40;;;14.00;76.20;;;;;;5056276;28;20550;-69
2021/09/20 08:15:08;;;;;;;3.40;1.45;;;14.10;76.00;;;;;;5057276;28;20541;-68
2021/09/20 08:17:34;;;;;;;3.22;1.40;;;14.20;76.30;;;;;;5055823;28;20471;-69
2021/09/20 08:20:03;;;;;;;3.05;1.38;;;14.30;75.90;;;;;;5056965;28;20033;-69
2021/09/20 08:22:29;;;;;;;1.88;1.33;;;14.40;75.10;;;;;;5057108;28;20083;-70
2021/09/20 08:24:55;;;;;;;2.40;1.55;;;14.40;75.10;;;;;;5055989;28;20422;-69
2021/09/20 08:27:22;;;;;;;2.13;1.52;;;14.60;74.70;;;;;;5056847;28;20029;-68
2021/09/20 08:29:50;;;;;;;3.25;1.55;;;14.60;74.40;;;;;;5055658;28;20032;-68
2021/09/20 08:32:17;;;;;;;2.65;1.40;;;14.80;73.80;;;;;;5056922;28;20488;-70
2021/09/20 08:34:42;;;;;;;2.85;1.70;;;14.80;73.30;;;;;;5056923;28;20104;-70
2021/09/20 08:37:08;;;;;;;2.90;1.45;;;14.80;73.20;;;;;;5055543;28;20124;-67
2021/09/20 08:39:34;;;;;;;4.15;1.40;;;14.90;73.70;;;;;;5055380;28;20033;-69
2021/09/20 08:42:00;;;;;;;3.30;1.40;;;14.90;73.10;;;;;;5056681;28;20036;-70
2021/09/20 08:44:26;;;;;;;2.10;1.40;;;14.90;73.30;;;;;;5056537;28;20017;-71
2021/09/20 08:46:54;;;;;;;4.00;1.50;;;14.80;73.10;;;;;;5056408;28;20207;-67
2021/09/20 08:49:22;;;;;;;2.42;1.40;;;14.80;73.70;;;;;;5056704;28;20033;-68
2021/09/20 08:51:50;;;;;;;2.03;1.30;;;14.70;73.00;;;;;;5055264;28;20052;-69
2021/09/20 08:54:17;;;;;;;5.35;1.60;;;14.60;73.20;;;;;;5056663;28;20021;-71
2021/09/20 08:56:43;;;;;;;2.63;1.45;;;14.50;73.20;;;;;;5056452;28;20021;-68
2021/09/20 08:59:11;;;;;;;3.03;2.00;;;14.50;73.40;;;;;;5056544;28;20029;-70
2021/09/20 09:01:38;;;;;;;3.10;1.50;;;14.50;74.00;;;;;;5056587;28;20021;-69
2021/09/20 09:04:28;;;;;;;3.45;1.60;;;14.60;73.80;;;;;;5055471;28;20410;-68
2021/09/20 09:07:01;;;;;;;4.43;1.75;;;14.60;74.20;;;;;;5056635;28;20120;-70
2021/09/20 09:09:33;;;;;;;3.92;2.03;;;14.60;74.00;;;;;;5054867;28;20040;-71
2021/09/20 09:12:14;;;;;;;4.82;2.20;;;14.60;74.00;;;;;;5054997;28;20062;-69
2021/09/20 09:14:54;;;;;;;5.43;2.67;;;14.60;73.90;;;;;;5054718;28;20043;-70
2021/09/20 09:17:41;;;;;;;4.47;2.58;;;14.60;74.40;;;;;;5055018;28;20057;-68
2021/09/20 09:20:13;;;;;;;4.03;2.20;;;14.60;74.50;;;;;;5054611;28;20033;-69
2021/09/20 09:22:51;;;;;;;4.68;2.00;;;14.60;74.20;;;;;;5054568;28;20478;-67
2021/09/20 09:25:23;;;;;;;2.42;1.60;;;14.60;74.10;;;;;;5056118;28;20025;-68
2021/09/20 09:27:50;;;;;;;3.50;1.50;;;14.70;73.90;;;;;;5054986;28;20475;-68
2021/09/20 09:30:23;;;;;;;3.55;1.60;;;14.70;74.00;;;;;;5054395;28;20438;-68
2021/09/20 09:33:04;;;;;;;5.50;2.25;;;14.60;74.10;;;;;;5054796;28;20033;-67
2021/09/20 09:35:32;;;;;;;6.10;2.10;;;14.60;73.80;;;;;;5055856;28;20381;-69
2021/09/20 09:38:05;;;;;;;4.68;1.80;;;14.50;74.00;;;;;;5054393;28;20079;-68
2021/09/20 09:40:54;;;;;;;7.80;1.92;;;14.60;74.30;;;;;;5055659;28;20071;-68
2021/09/20 09:43:41;;;;;;;1.75;1.40;;;14.60;73.90;;;;;;5054394;28;20094;-68
2021/09/20 09:46:25;;;;;;;3.10;1.70;;;14.50;73.70;;;;;;5054906;28;20029;-68
2021/09/20 09:48:53;;;;;;;3.70;1.88;;;14.50;73.70;;;;;;5055433;28;20036;-68
2021/09/20 09:51:19;;;;;;;2.42;1.48;;;14.50;73.60;;;;;;5055594;28;20527;-70
2021/09/20 09:53:47;;;;;;;3.55;1.70;;;14.40;74.00;;;;;;5054083;28;20032;-68
2021/09/20 09:56:17;;;;;;;3.90;2.20;;;14.40;73.60;;;;;;5053918;28;20040;-69
2021/09/20 09:59:04;;;;;;;2.42;1.50;;;14.40;73.50;;;;;;5055462;28;20063;-68
2021/09/20 10:01:37;;;;;;;1.75;1.38;;;14.30;74.30;;;;;;5053919;28;20025;-68
2021/09/20 10:04:09;;;;;;;3.63;1.50;;;14.30;73.80;;;;;;5054152;28;20455;-69
2021/09/20 10:06:44;;;;;;;2.40;1.33;;;14.40;73.80;;;;;;5053570;28;20056;-69
2021/09/20 10:09:11;;;;;;;1.45;1.30;;;14.50;73.70;;;;;;5054946;28;20088;-68
2021/09/20 10:11:38;;;;;;;2.88;1.75;;;14.50;73.40;;;;;;5053803;28;20483;-69
2021/09/20 10:14:04;;;;;;;2.53;1.60;;;14.60;73.50;;;;;;5053827;28;20053;-69
2021/09/20 10:16:34;;;;;;;2.65;1.70;;;14.70;73.40;;;;;;5054138;28;20063;-68
2021/09/20 10:18:59;;;;;;;2.65;1.65;;;14.70;73.20;;;;;;5054764;28;20044;-70
2021/09/20 10:21:26;;;;;;;4.28;1.85;;;14.80;73.20;;;;;;5053718;28;20025;-70
2021/09/20 10:23:54;;;;;;;8.65;2.70;;;14.80;73.10;;;;;;5053541;28;20025;-70
2021/09/20 10:26:20;;;;;;;4.20;1.70;;;14.80;73.30;;;;;;5054840;28;20025;-69
2021/09/20 10:28:50;;;;;;;2.83;1.48;;;14.90;73.30;;;;;;5053465;28;20029;-69
2021/09/20 10:31:16;;;;;;;2.72;1.40;;;15.00;73.20;;;;;;5054413;28;20033;-69
2021/09/20 10:33:42;;;;;;;3.50;1.70;;;15.10;72.80;;;;;;5052532;28;20025;-70
2021/09/20 10:36:08;;;;;;;2.55;1.40;;;15.00;72.20;;;;;;5055015;28;20360;-69
2021/09/20 10:38:33;;;;;;;2.33;1.50;;;15.00;72.40;;;;;;5053729;28;20024;-69
2021/09/20 10:41:18;;;;;;;2.17;1.45;;;15.10;72.40;;;;;;5053161;28;20021;-70
2021/09/20 10:43:46;;;;;;;3.22;1.90;;;15.10;72.40;;;;;;5054582;28;20025;-70
2021/09/20 10:46:23;;;;;;;3.88;1.58;;;15.10;71.80;;;;;;5053236;28;20029;-71
2021/09/20 10:48:59;;;;;;;3.28;1.40;;;15.20;71.60;;;;;;5053330;28;20483;-69
2021/09/20 10:51:38;;;;;;;4.55;1.80;;;15.20;71.50;;;;;;5053368;28;20390;-69
2021/09/20 10:54:13;;;;;;;6.72;2.15;;;15.20;71.50;;;;;;5054183;28;20025;-70
2021/09/20 10:56:39;;;;;;;2.92;2.03;;;15.30;71.50;;;;;;5053989;28;20028;-71
2021/09/20 10:59:10;;;;;;;3.00;2.10;;;15.40;71.60;;;;;;5052839;28;20112;-69
2021/09/20 11:01:39;;;;;;;4.05;2.30;;;15.50;71.20;;;;;;5054374;28;20033;-69
2021/09/20 11:04:29;;;;;;;4.30;2.35;;;15.60;70.70;;;;;;5054155;28;20033;-69
2021/09/20 11:07:05;;;;;;;5.70;2.30;;;15.80;70.50;;;;;;5052797;28;20078;-71
2021/09/20 11:09:38;;;;;;;4.55;1.73;;;15.90;70.10;;;;;;5054089;28;20033;-70
2021/09/20 11:12:10;;;;;;;1.73;1.42;;;16.10;69.70;;;;;;5052797;28;20032;-70
2021/09/20 11:15:13;;;;;;;2.42;1.55;;;16.10;69.00;;;;;;5052892;28;20033;-70
2021/09/20 11:17:47;;;;;;;3.38;1.70;;;16.10;69.20;;;;;;5034893;28;20024;-70
2021/09/20 11:20:25;;;;;;;2.72;1.35;;;15.90;68.90;;;;;;5049919;28;20052;-70
2021/09/20 11:23:10;;;;;;;3.17;1.45;;;15.80;69.10;;;;;;5053894;28;20024;-69
2021/09/20 11:25:36;;;;;;;4.07;1.65;;;15.70;69.50;;;;;;5053776;28;20479;-69
2021/09/20 11:28:02;;;;;;;4.35;1.65;;;15.60;69.90;;;;;;5053740;28;20126;-69
2021/09/20 11:30:27;;;;;;;1.95;1.42;;;15.60;69.80;;;;;;5052497;28;20159;-69
2021/09/20 11:33:07;;;;;;;2.13;1.55;;;15.50;70.00;;;;;;5052828;28;20071;-70
2021/09/20 11:35:34;;;;;;;2.22;1.52;;;15.40;70.20;;;;;;5053586;28;20100;-70
2021/09/20 11:38:03;;;;;;;4.55;2.15;;;15.40;70.90;;;;;;5052265;28;20029;-70
2021/09/20 11:40:32;;;;;;;7.68;2.53;;;15.40;70.90;;;;;;5053375;28;20467;-70
2021/09/20 11:43:02;;;;;;;3.83;1.50;;;15.50;70.70;;;;;;5052147;28;20116;-69
2021/09/20 11:45:31;;;;;;;3.45;1.60;;;15.50;70.50;;;;;;5053588;28;20164;-69
2021/09/20 11:48:01;;;;;;;2.15;1.50;;;15.50;70.80;;;;;;5052555;28;20459;-69
2021/09/20 11:50:36;;;;;;;4.43;1.67;;;15.40;71.00;;;;;;5052066;28;20111;-69
2021/09/20 11:53:04;;;;;;;;;;;15.40;71.30;;;;;;5052386;28;20033;-69
2021/09/20 11:55:35;;;;;;;2.85;1.80;;;15.30;71.30;;;;;;5053601;28;19951;-69
2021/09/20 11:58:09;;;;;;;3.10;1.50;;;15.10;71.80;;;;;;5052021;28;20083;-69
2021/09/20 12:00:40;;;;;;;1.95;1.38;;;15.10;72.50;;;;;;5052148;28;20025;-69
2021/09/20 12:03:08;;;;;;;2.92;1.73;;;15.10;72.80;;;;;;5053070;28;20021;-69
2021/09/20 12:05:45;;;;;;;3.28;1.80;;;15.10;72.60;;;;;;5051660;28;20111;-69
2021/09/20 12:08:16;;;;;;;2.85;1.50;;;15.10;72.60;;;;;;5053442;28;20021;-68
2021/09/20 12:10:48;;;;;;;4.30;2.13;;;15.10;72.60;;;;;;5052188;28;20138;-69
2021/09/20 12:13:23;;;;;;;3.88;1.65;;;15.00;72.80;;;;;;5052102;28;20028;-69
2021/09/20 12:15:51;;;;;;;3.30;1.75;;;15.00;73.40;;;;;;5053214;28;20098;-68
2021/09/20 12:18:20;;;;;;;3.63;2.00;;;15.10;73.40;;;;;;5052134;28;20091;-69
2021/09/20 12:20:51;;;;;;;5.25;3.50;;;15.10;73.40;;;;;;5051883;28;20460;-71
2021/09/20 12:23:19;;;;;;;4.53;2.17;;;15.20;73.20;;;;;;5051984;28;20060;-69
2021/09/20 12:25:46;;;;;;;2.60;1.90;;;15.20;73.30;;;;;;5051823;28;20025;-71
2021/09/20 12:28:27;;;;;;;3.05;1.80;;;15.20;73.30;;;;;;5052599;28;20479;-69
2021/09/20 12:30:53;;;;;;;2.58;1.50;;;15.20;73.60;;;;;;5053136;28;20032;-68
2021/09/20 12:33:18;;;;;;;4.10;1.80;;;15.40;73.70;;;;;;5051891;28;20531;-69
2021/09/20 12:35:44;;;;;;;2.75;1.70;;;15.50;73.00;;;;;;5053229;28;20025;-69
2021/09/20 12:38:19;;;;;;;4.32;1.80;;;15.50;72.50;;;;;;5053221;28;20029;-69
2021/09/20 12:40:46;;;;;;;3.80;1.75;;;15.50;72.70;;;;;;5052788;28;20493;-71
2021/09/20 12:43:32;;;;;;;2.92;1.77;;;15.50;72.90;;;;;;5052831;28;20056;-68
2021/09/20 12:46:28;;;;;;;2.30;1.60;;;15.60;73.40;;;;;;5053120;28;20460;-69